createdAt,value
2019-02-27T04:53:22.302Z,137.70
2019-02-27T04:55:53.050Z,137.47
2019-02-27T04:58:23.543Z,134.47
2019-02-27T05:00:54.171Z,106.03
2019-02-27T05:03:25.834Z,96.23
2019-02-27T05:05:56.974Z,97.77
2019-02-27T05:08:27.795Z,89.47
2019-02-27T05:11:02.434Z,85.33
2019-02-27T05:13:34.531Z,93.57
2019-02-27T05:16:06.132Z,88.50
2019-02-27T05:18:36.696Z,88.50
2019-02-27T05:21:07.370Z,87.33
2019-02-27T05:23:37.861Z,71.00
2019-02-27T05:26:08.541Z,79.33
2019-02-27T05:28:39.127Z,71.67
2019-02-27T05:31:10.175Z,72.50
2019-02-27T05:33:40.705Z,75.17
2019-02-27T05:36:11.185Z,86.10
2019-02-27T05:38:43.612Z,84.07
2019-02-27T05:41:14.141Z,81.70
2019-02-27T05:43:47.595Z,91.43
2019-02-27T05:46:16.935Z,104.73
2019-02-27T05:48:47.425Z,101.63
2019-02-27T05:51:17.994Z,91.33
2019-02-27T05:53:48.636Z,79.15
2019-02-27T05:56:19.168Z,86.12
2019-02-27T05:58:49.701Z,83.03
2019-02-27T06:01:20.188Z,64.97
2019-02-27T06:03:52.320Z,79.12
2019-02-27T06:06:22.927Z,80.67
2019-02-27T06:08:53.455Z,71.22
2019-02-27T06:11:24.025Z,55.78
2019-02-27T06:13:54.509Z,57.98
2019-02-27T06:16:25.146Z,60.88
2019-02-27T06:18:56.241Z,72.37
2019-02-27T06:21:27.365Z,57.88
2019-02-27T06:23:57.868Z,55.00
2019-02-27T06:26:32.231Z,51.77
2019-02-27T06:29:00.502Z,51.83
2019-02-27T06:31:31.096Z,45.23
2019-02-27T06:34:01.627Z,46.68
2019-02-27T06:36:32.267Z,46.73
2019-02-27T06:39:02.822Z,45.07
2019-02-27T06:41:35.066Z,57.03
2019-02-27T06:44:05.537Z,55.43
2019-02-27T06:46:36.126Z,62.10
2019-02-27T06:49:07.688Z,68.37
2019-02-27T06:51:38.215Z,75.65
2019-02-27T06:54:08.745Z,71.80
2019-02-27T06:56:39.284Z,102.67
2019-02-27T06:59:09.910Z,91.25
2019-02-27T07:01:40.628Z,92.10
2019-02-27T07:04:11.278Z,76.20
2019-02-27T07:06:41.821Z,66.97
2019-02-27T07:09:12.433Z,68.00
2019-02-27T07:11:46.217Z,74.43
2019-02-27T07:14:15.450Z,103.70
2019-02-27T07:16:45.928Z,72.60
2019-02-27T07:19:16.507Z,81.87
2019-02-27T07:21:47.043Z,78.17
2019-02-27T07:24:17.539Z,63.80
2019-02-27T07:26:50.230Z,70.13
2019-02-27T07:29:22.059Z,63.40
2019-02-27T07:31:52.716Z,70.80
2019-02-27T07:34:23.477Z,54.55
2019-02-27T07:36:54.007Z,48.15
2019-02-27T07:39:24.547Z,52.65
2019-02-27T07:41:55.068Z,55.20
2019-02-27T07:44:25.622Z,57.83
2019-02-27T07:46:57.490Z,59.30
2019-02-27T07:49:30.960Z,62.80
2019-02-27T07:52:00.975Z,64.70
2019-02-27T07:54:31.745Z,63.02
2019-02-27T07:57:02.344Z,81.92
2019-02-27T07:59:32.986Z,57.45
2019-02-27T08:02:03.514Z,53.33
2019-02-27T08:04:34.044Z,53.33
2019-02-27T08:07:04.772Z,60.78
2019-02-27T08:09:35.303Z,53.13
2019-02-27T08:12:05.834Z,45.95
2019-02-27T08:14:37.273Z,46.35
2019-02-27T08:17:17.309Z,48.20
2019-02-27T08:19:42.885Z,48.48
2019-02-27T08:22:12.876Z,39.40
2019-02-27T08:24:43.509Z,66.15
2019-02-27T08:27:14.042Z,47.85
2019-02-27T08:29:44.575Z,46.42
2019-02-27T08:32:15.298Z,55.60
2019-02-27T08:34:45.828Z,45.35
2019-02-27T08:37:16.359Z,49.75
2019-02-27T08:39:46.889Z,46.63
2019-02-27T08:42:17.426Z,43.55
2019-02-27T08:44:48.062Z,48.92
2019-02-27T08:47:18.594Z,37.78
2019-02-27T08:49:49.163Z,48.90
2019-02-27T08:52:19.644Z,50.73
2019-02-27T08:54:50.183Z,43.23
2019-02-27T08:57:20.812Z,47.03
2019-02-27T08:59:51.288Z,46.48
2019-02-27T09:02:21.772Z,49.65
2019-02-27T09:04:52.305Z,47.43
2019-02-27T09:07:22.779Z,46.50
2019-02-27T09:09:55.140Z,53.05
2019-02-27T09:12:25.839Z,48.02
2019-02-27T09:14:56.343Z,47.40
2019-02-27T09:17:27.816Z,49.95
2019-02-27T09:19:58.560Z,50.70
2019-02-27T09:22:29.068Z,60.10
2019-02-27T09:24:59.620Z,58.38
2019-02-27T09:27:30.152Z,61.18
2019-02-27T09:30:02.689Z,56.65
2019-02-27T09:32:34.075Z,58.13
2019-02-27T09:35:04.917Z,57.30
2019-02-27T09:37:35.453Z,53.17
2019-02-27T09:40:12.125Z,51.50
2019-02-27T09:42:42.755Z,50.85
2019-02-27T09:45:19.536Z,64.20
2019-02-27T09:47:50.101Z,59.90
2019-02-27T09:50:31.685Z,54.63
2019-02-27T09:53:03.713Z,53.25
2019-02-27T09:55:34.760Z,53.15
2019-02-27T09:58:09.876Z,51.98
2019-02-27T10:00:47.342Z,57.35
2019-02-27T10:03:21.245Z,57.17
2019-02-27T10:05:50.196Z,55.63
2019-02-27T10:08:20.727Z,55.60
2019-02-27T10:10:51.205Z,65.40
2019-02-27T10:13:21.786Z,59.30
2019-02-27T10:15:52.317Z,60.58
2019-02-27T10:18:23.155Z,70.32
2019-02-27T10:20:53.687Z,59.75
2019-02-27T10:23:24.238Z,65.37
2019-02-27T10:25:54.845Z,69.77
2019-02-27T10:28:25.409Z,63.48
2019-02-27T10:30:55.906Z,72.72
2019-02-27T10:33:26.439Z,63.28
2019-02-27T10:35:57.930Z,78.22
2019-02-27T10:38:28.519Z,62.75
2019-02-27T10:40:59.048Z,57.20
2019-02-27T10:43:29.638Z,60.60
2019-02-27T10:46:00.223Z,61.73
2019-02-27T10:48:30.728Z,68.70
2019-02-27T10:51:01.281Z,69.20
2019-02-27T10:53:31.909Z,76.72
2019-02-27T10:56:02.446Z,72.58
2019-02-27T10:58:33.182Z,66.35
2019-02-27T11:01:03.711Z,73.55
2019-02-27T11:03:34.265Z,69.00
2019-02-27T11:06:04.883Z,72.08
2019-02-27T11:08:35.437Z,70.80
2019-02-27T11:11:08.560Z,69.97
2019-02-27T11:13:38.926Z,73.20
2019-02-27T11:16:09.515Z,75.28
2019-02-27T11:18:40.191Z,71.80
2019-02-27T11:21:12.146Z,86.08
2019-02-27T11:23:42.677Z,78.55
2019-02-27T11:26:13.319Z,75.10
2019-02-27T11:28:47.545Z,72.78
2019-02-27T11:31:16.223Z,78.57
2019-02-27T11:33:46.951Z,80.03
2019-02-27T11:36:17.481Z,84.83
2019-02-27T11:38:48.122Z,86.02
2019-02-27T11:41:18.651Z,83.80
2019-02-27T11:43:49.186Z,77.42
2019-02-27T11:46:20.157Z,77.32
2019-02-27T11:48:50.749Z,81.35
2019-02-27T11:51:21.279Z,82.45
2019-02-27T11:53:51.923Z,80.35
2019-02-27T11:56:22.449Z,85.47
2019-02-27T11:58:52.979Z,74.17
2019-02-27T12:01:24.126Z,79.70
2019-02-27T12:03:54.756Z,83.20
2019-02-27T12:06:25.386Z,84.00
2019-02-27T12:08:59.529Z,83.33
2019-02-27T12:11:28.249Z,83.12
2019-02-27T12:13:58.839Z,87.37
2019-02-27T12:16:29.313Z,86.47
2019-02-27T12:18:59.878Z,83.20
2019-02-27T12:21:30.367Z,84.13
2019-02-27T12:24:01.053Z,80.15
2019-02-27T12:26:34.426Z,85.92
2019-02-27T12:29:03.977Z,82.82
2019-02-27T12:31:34.590Z,83.47
2019-02-27T12:34:05.146Z,79.20
2019-02-27T12:36:35.647Z,110.42
2019-02-27T12:39:06.792Z,88.35
2019-02-27T12:41:37.423Z,81.12
2019-02-27T12:44:07.953Z,83.33
2019-02-27T12:46:38.482Z,87.22
2019-02-27T12:49:09.014Z,89.50
2019-02-27T12:51:39.545Z,90.05
2019-02-27T12:54:10.075Z,92.42
2019-02-27T12:56:43.323Z,86.53
2019-02-27T12:59:12.883Z,157.25
2019-02-27T13:01:43.367Z,95.60
2019-02-27T13:04:16.570Z,101.87
2019-02-27T13:06:46.215Z,98.72
2019-02-27T13:09:16.747Z,104.78
2019-02-27T13:11:47.376Z,146.25
2019-02-27T13:14:18.010Z,104.65
2019-02-27T13:16:49.667Z,97.57
2019-02-27T13:19:21.945Z,99.50
2019-02-27T13:21:55.009Z,92.62
2019-02-27T13:24:24.947Z,94.10
2019-02-27T13:26:55.468Z,82.92
2019-02-27T13:29:26.102Z,88.47
2019-02-27T13:31:57.636Z,89.15
2019-02-27T13:34:28.197Z,87.78
2019-02-27T13:36:58.728Z,102.87
2019-02-27T13:39:29.325Z,92.82
2019-02-27T13:41:59.812Z,91.85
2019-02-27T13:44:34.503Z,87.57
2019-02-27T13:47:02.760Z,93.80
2019-02-27T13:49:33.250Z,94.90
2019-02-27T13:52:03.821Z,87.75
2019-02-27T13:54:37.938Z,86.57
2019-02-27T13:57:06.727Z,93.10
2019-02-27T13:59:38.284Z,90.55
2019-02-27T14:02:11.189Z,89.65
2019-02-27T14:04:41.180Z,88.30
2019-02-27T14:07:11.809Z,91.72
2019-02-27T14:09:44.008Z,83.40
2019-02-27T14:12:16.185Z,91.28
2019-02-27T14:14:50.270Z,88.85
2019-02-27T14:17:21.146Z,82.97
2019-02-27T14:19:51.644Z,91.47
2019-02-27T14:22:22.180Z,88.40
2019-02-27T14:24:54.851Z,93.55
2019-02-27T14:27:25.210Z,100.72
2019-02-27T14:29:55.710Z,103.62
2019-02-27T14:32:26.235Z,98.33
2019-02-27T14:34:57.983Z,106.50
2019-02-27T14:37:29.098Z,93.27
2019-02-27T14:40:03.924Z,91.15
2019-02-27T14:42:33.067Z,90.72
2019-02-27T14:45:05.922Z,112.00
2019-02-27T14:47:36.486Z,104.03
2019-02-27T14:50:10.087Z,92.67
2019-02-27T14:52:40.702Z,82.42
2019-02-27T14:55:13.149Z,79.47
2019-02-27T14:57:50.071Z,105.95
2019-02-27T15:00:30.650Z,102.42
2019-02-27T15:03:01.387Z,103.60
2019-02-27T15:05:32.110Z,82.72
2019-02-27T15:08:02.753Z,96.42
2019-02-27T15:10:33.532Z,80.97
2019-02-27T15:13:04.222Z,85.28
2019-02-27T15:15:34.748Z,80.83
2019-02-27T15:18:05.797Z,87.75
2019-02-27T15:20:40.191Z,78.05
2019-02-27T15:23:10.284Z,79.47
2019-02-27T15:25:43.114Z,69.30
2019-02-27T15:28:13.239Z,66.92
2019-02-27T15:30:46.458Z,80.42
2019-02-27T15:33:16.494Z,79.30
2019-02-27T15:35:47.080Z,98.80
2019-02-27T15:38:17.641Z,112.95
2019-02-27T15:40:48.256Z,85.77
2019-02-27T15:43:18.993Z,84.03
2019-02-27T15:45:49.658Z,68.75
2019-02-27T15:48:20.212Z,85.95
2019-02-27T15:50:50.878Z,70.28
2019-02-27T15:53:21.534Z,68.22
2019-02-27T15:55:52.053Z,141.77
2019-02-27T15:58:25.292Z,184.65
2019-02-27T16:00:54.965Z,136.50
2019-02-27T16:03:25.587Z,114.77
2019-02-27T16:05:56.115Z,157.45
2019-02-27T16:08:26.743Z,120.28
2019-02-27T16:10:57.270Z,223.32
2019-02-27T16:13:28.015Z,138.28
2019-02-27T16:15:58.518Z,282.27
2019-02-27T16:18:29.038Z,179.75
2019-02-27T16:20:59.605Z,177.62
2019-02-27T16:23:30.238Z,193.47
2019-02-27T16:26:00.799Z,173.10
2019-02-27T16:28:31.508Z,239.63
2019-02-27T16:31:05.767Z,373.55
2019-02-27T16:33:34.510Z,269.77
2019-02-27T16:36:05.248Z,216.05
2019-02-27T16:38:35.990Z,207.47
2019-02-27T16:41:06.617Z,217.82
2019-02-27T16:43:37.253Z,140.60
2019-02-27T16:46:08.816Z,259.83
2019-02-27T16:48:39.710Z,148.53
2019-02-27T16:51:11.407Z,168.87
2019-02-27T16:53:42.137Z,222.95
2019-02-27T16:56:13.010Z,196.93
2019-02-27T16:58:43.612Z,176.97
2019-02-27T17:01:14.341Z,201.10
2019-02-27T17:03:49.894Z,157.70
2019-02-27T17:06:18.344Z,246.82
2019-02-27T17:08:49.117Z,348.98
2019-02-27T17:11:19.831Z,305.02
2019-02-27T17:13:50.431Z,267.18
2019-02-27T17:16:21.115Z,263.00
2019-02-27T17:18:51.687Z,264.30
2019-02-27T17:21:25.881Z,275.68
2019-02-27T17:23:54.582Z,223.62
2019-02-27T17:26:25.145Z,181.30
2019-02-27T17:28:55.826Z,180.67
2019-02-27T17:31:26.305Z,179.07
2019-02-27T17:33:56.882Z,189.65
2019-02-27T17:36:31.615Z,190.95
2019-02-27T17:38:59.789Z,153.45
2019-02-27T17:41:30.270Z,157.70
2019-02-27T17:44:05.060Z,160.50
2019-02-27T17:46:33.237Z,130.07
2019-02-27T17:49:03.945Z,134.55
2019-02-27T17:51:34.498Z,144.70
2019-02-27T17:54:06.543Z,151.25
2019-02-27T17:56:37.185Z,170.50
2019-02-27T17:59:08.605Z,180.18
2019-02-27T18:01:39.979Z,228.10
2019-02-27T18:04:14.433Z,224.45
2019-02-27T18:06:42.911Z,208.15
2019-02-27T18:09:13.413Z,189.75
2019-02-27T18:11:44.057Z,422.87
2019-02-27T18:14:14.586Z,480.63
2019-02-27T18:16:45.215Z,607.27
2019-02-27T18:19:17.273Z,380.37
2019-02-27T18:21:47.829Z,331.32
2019-02-27T18:24:18.323Z,247.33
2019-02-27T18:26:51.227Z,190.55
2019-02-27T18:29:21.873Z,171.22
2019-02-27T18:31:52.490Z,129.03
2019-02-27T18:34:22.981Z,162.30
2019-02-27T18:36:53.455Z,176.87
2019-02-27T18:39:25.760Z,182.25
2019-02-27T18:41:56.121Z,171.98
2019-02-27T18:44:26.620Z,155.85
2019-02-27T18:46:59.433Z,219.22
2019-02-27T18:49:29.487Z,227.60
2019-02-27T18:52:00.119Z,326.45
2019-02-27T18:54:30.857Z,543.83
2019-02-27T18:57:01.491Z,460.07
2019-02-27T18:59:32.155Z,371.18
2019-02-27T19:02:02.756Z,539.75
2019-02-27T19:04:35.206Z,423.62
2019-02-27T19:07:05.659Z,409.40
2019-02-27T19:09:36.401Z,249.50
2019-02-27T19:12:06.977Z,230.60
2019-02-27T19:14:39.589Z,157.45
2019-02-27T19:17:10.160Z,129.95
2019-02-27T19:19:40.674Z,144.02
2019-02-27T19:22:12.844Z,163.85
2019-02-27T19:24:43.467Z,132.65
2019-02-27T19:27:15.529Z,161.50
2019-02-27T19:29:46.374Z,155.37
2019-02-27T19:32:16.914Z,130.93
2019-02-27T19:34:48.127Z,158.85
2019-02-27T19:37:18.790Z,150.68
2019-02-27T19:39:49.320Z,175.12
2019-02-27T19:42:20.058Z,199.17
2019-02-27T19:44:50.591Z,267.48
2019-02-27T19:47:21.120Z,263.43
2019-02-27T19:49:51.626Z,276.95
2019-02-27T19:52:22.185Z,206.68
2019-02-27T19:54:52.919Z,213.37
